Aviation Digital Data Service (ADDS)

Output produced by METARs form (2141 UTC 28 March 2017)
found at http://aviationweather.gov/adds/metars/
 
KBPT 282053Z 12019KT 10SM FEW024 27/19 A2985 RMK AO2 SLP109 T02720194 58026